Time;durP1;ratioP1;P1;durP2;ratioP2;P2;SDS_P1;SDS_P2;PMS_P1;PMS_P2;Temp;Humidity;BMP_temperature;BMP_pressure;BME280_temperature;BME280_humidity;BME280_pressure;Samples;Min_cycle;Max_cycle;Signal;HPM_P1;HPM_P2
2024/01/31 00:01:30;;;;;;;1.35;1.25;;;7.60;99.90;;;;;;4405899;32;20085;-75
2024/01/31 00:03:55;;;;;;;0.70;0.70;;;7.60;99.90;;;;;;4403884;32;20069;-73
2024/01/31 00:06:21;;;;;;;2.08;0.52;;;7.60;99.90;;;;;;4406539;32;20078;-75
2024/01/31 00:08:46;;;;;;;14.18;2.40;;;7.60;99.90;;;;;;4406381;32;20541;-75
2024/01/31 00:11:12;;;;;;;3.47;0.75;;;7.70;99.90;;;;;;4402571;32;20085;-74
2024/01/31 00:13:37;;;;;;;1.55;0.60;;;7.70;99.90;;;;;;4403300;32;20415;-73
2024/01/31 00:16:03;;;;;;;0.30;0.30;;;7.80;99.90;;;;;;4406292;32;20089;-74
2024/01/31 00:18:29;;;;;;;0.40;0.40;;;7.80;99.90;;;;;;4407629;32;20094;-73
2024/01/31 00:20:54;;;;;;;0.52;0.52;;;7.90;99.90;;;;;;4404833;32;20587;-78
2024/01/31 00:23:20;;;;;;;0.80;0.70;;;8.00;99.90;;;;;;4404430;32;20090;-77
2024/01/31 00:25:45;;;;;;;0.60;0.60;;;8.00;99.90;;;;;;4405256;32;20374;-77
2024/01/31 00:28:12;;;;;;;0.40;0.40;;;8.00;99.90;;;;;;4406025;32;20635;-77
2024/01/31 00:30:38;;;;;;;7.87;1.77;;;8.00;99.90;;;;;;4407653;32;20557;-78
2024/01/31 00:33:04;;;;;;;0.70;0.70;;;8.00;99.90;;;;;;4399988;32;20069;-77
2024/01/31 00:35:29;;;;;;;0.32;0.32;;;8.00;99.90;;;;;;4400536;32;20089;-77
2024/01/31 00:37:55;;;;;;;0.30;0.30;;;8.10;99.90;;;;;;4409396;32;20679;-77
2024/01/31 00:40:21;;;;;;;0.52;0.52;;;8.10;99.90;;;;;;4407235;32;20532;-76
2024/01/31 00:42:46;;;;;;;0.70;0.70;;;8.20;99.90;;;;;;4403225;32;20082;-77
2024/01/31 00:45:13;;;;;;;1.10;1.00;;;8.20;99.90;;;;;;4400795;32;20070;-77
2024/01/31 00:47:40;;;;;;;0.50;0.50;;;8.20;99.90;;;;;;4402328;32;21772;-76
2024/01/31 00:50:06;;;;;;;0.73;0.73;;;8.20;99.90;;;;;;4406571;32;20077;-77
2024/01/31 00:52:31;;;;;;;0.47;0.47;;;8.20;99.90;;;;;;4405102;32;20435;-79
2024/01/31 00:54:57;;;;;;;1.10;0.85;;;8.30;99.90;;;;;;4402827;32;20074;-77
2024/01/31 00:57:22;;;;;;;3.03;0.62;;;8.30;99.90;;;;;;4403936;32;20419;-77
2024/01/31 00:59:48;;;;;;;1.08;0.82;;;8.30;99.90;;;;;;4402923;32;20089;-78
2024/01/31 01:02:13;;;;;;;4.25;1.70;;;8.20;99.90;;;;;;4403638;32;20150;-77
2024/01/31 01:04:39;;;;;;;11.07;1.40;;;8.30;99.90;;;;;;4403177;32;20128;-77
2024/01/31 01:07:04;;;;;;;0.73;0.73;;;8.30;99.90;;;;;;4404453;32;20094;-77
2024/01/31 01:09:30;;;;;;;0.45;0.45;;;8.30;99.90;;;;;;4406759;32;20114;-78
2024/01/31 01:11:55;;;;;;;0.35;0.35;;;8.40;99.90;;;;;;4403730;32;20085;-76
2024/01/31 01:14:21;;;;;;;0.55;0.55;;;8.40;99.90;;;;;;4402399;32;20081;-76
2024/01/31 01:16:46;;;;;;;0.40;0.40;;;8.40;99.90;;;;;;4402462;32;20081;-77
2024/01/31 01:19:12;;;;;;;1.08;0.82;;;8.40;99.90;;;;;;4404320;32;20088;-76
2024/01/31 01:21:37;;;;;;;0.52;0.52;;;8.50;99.90;;;;;;4406452;32;20551;-77
2024/01/31 01:24:03;;;;;;;3.62;1.15;;;8.50;99.90;;;;;;4405073;32;20086;-76
2024/01/31 01:26:28;;;;;;;0.68;0.60;;;8.50;99.90;;;;;;4402306;32;20530;-77
2024/01/31 01:28:54;;;;;;;0.75;0.73;;;8.50;99.90;;;;;;4402827;32;20151;-77
2024/01/31 01:31:20;;;;;;;0.70;0.62;;;8.50;99.90;;;;;;4403163;32;20078;-74
2024/01/31 01:33:46;;;;;;;3.37;1.27;;;8.50;99.90;;;;;;4403186;32;20066;-75
2024/01/31 01:36:11;;;;;;;0.40;0.40;;;8.60;99.90;;;;;;4404355;32;21497;-76
2024/01/31 01:38:37;;;;;;;0.20;0.20;;;8.60;99.90;;;;;;4400699;32;20094;-76
2024/01/31 01:41:04;;;;;;;0.40;0.40;;;8.70;99.90;;;;;;4401368;32;20149;-75
2024/01/31 01:43:29;;;;;;;1.75;0.80;;;8.80;99.90;;;;;;4401650;32;20313;-74
2024/01/31 01:46:09;;;;;;;0.90;0.60;;;8.70;99.90;;;;;;4402590;32;20078;-74
2024/01/31 01:48:35;;;;;;;0.40;0.40;;;8.80;99.90;;;;;;4404831;32;20539;-75
2024/01/31 01:51:00;;;;;;;0.32;0.32;;;8.80;99.90;;;;;;4405933;32;20116;-75
2024/01/31 01:53:26;;;;;;;0.40;0.40;;;8.80;99.90;;;;;;4404510;32;20081;-74
2024/01/31 01:55:52;;;;;;;1.33;1.23;;;8.80;99.90;;;;;;4406079;32;20081;-74
2024/01/31 01:58:17;;;;;;;0.30;0.30;;;8.90;99.90;;;;;;4406501;32;20191;-73
2024/01/31 02:00:45;;;;;;;1.08;0.77;;;8.90;99.90;;;;;;4405722;32;20137;-76
2024/01/31 02:03:12;;;;;;;0.30;0.30;;;8.90;99.90;;;;;;4401590;32;20481;-74
2024/01/31 02:05:39;;;;;;;0.40;0.40;;;8.90;99.90;;;;;;4402547;32;20082;-75
2024/01/31 02:08:05;;;;;;;0.30;0.30;;;8.90;99.90;;;;;;4404513;32;20125;-74
2024/01/31 02:10:30;;;;;;;0.90;0.73;;;9.00;99.90;;;;;;4406926;32;20576;-76
2024/01/31 02:12:56;;;;;;;0.30;0.30;;;8.90;99.90;;;;;;4401013;32;20077;-75
2024/01/31 02:15:21;;;;;;;0.20;0.20;;;9.00;99.90;;;;;;4399182;32;20082;-74
2024/01/31 02:17:47;;;;;;;0.40;0.40;;;8.90;99.90;;;;;;4402132;32;20774;-76
2024/01/31 02:20:15;;;;;;;0.40;0.40;;;8.90;99.90;;;;;;4406712;32;20328;-74
2024/01/31 02:22:45;;;;;;;4.82;1.83;;;8.80;99.90;;;;;;4404620;32;20136;-74
2024/01/31 02:25:13;;;;;;;0.30;0.30;;;8.70;99.90;;;;;;4404741;32;20524;-74
2024/01/31 02:27:39;;;;;;;1.17;0.50;;;8.70;99.90;;;;;;4402549;32;20094;-74
2024/01/31 02:30:06;;;;;;;0.50;0.50;;;8.60;99.90;;;;;;4405189;32;20074;-73
2024/01/31 02:32:31;;;;;;;1.55;0.62;;;8.60;99.90;;;;;;4400547;32;20548;-73
2024/01/31 02:34:57;;;;;;;3.95;0.80;;;8.60;99.90;;;;;;4401742;32;20065;-74
2024/01/31 02:37:22;;;;;;;0.40;0.40;;;8.60;99.90;;;;;;4399183;32;20144;-74
2024/01/31 02:39:48;;;;;;;0.30;0.30;;;8.70;99.90;;;;;;4403724;32;20081;-73
2024/01/31 02:42:14;;;;;;;0.60;0.60;;;8.60;99.90;;;;;;4401622;32;20459;-76
2024/01/31 02:44:40;;;;;;;0.65;0.60;;;8.70;99.90;;;;;;4399266;32;20069;-75
2024/01/31 02:47:05;;;;;;;0.30;0.30;;;8.60;99.90;;;;;;4405934;32;20086;-76
2024/01/31 02:49:31;;;;;;;0.90;0.90;;;8.60;99.90;;;;;;4404534;32;20537;-76
2024/01/31 02:51:56;;;;;;;0.32;0.32;;;8.60;99.90;;;;;;4403657;32;20069;-76
2024/01/31 02:54:22;;;;;;;0.50;0.50;;;8.60;99.90;;;;;;4403209;32;20507;-76
2024/01/31 02:56:47;;;;;;;0.37;0.37;;;8.50;99.90;;;;;;4403302;32;20144;-76
2024/01/31 02:59:13;;;;;;;0.20;0.20;;;8.50;99.90;;;;;;4401804;32;20077;-76
2024/01/31 03:04:07;;;;;;;0.30;0.30;;;8.50;99.90;;;;;;4403081;32;20172;-77
2024/01/31 03:06:32;;;;;;;0.40;0.40;;;8.50;99.90;;;;;;4402094;32;20213;-76
2024/01/31 03:08:57;;;;;;;0.30;0.30;;;8.50;99.90;;;;;;4403592;32;20125;-77
2024/01/31 03:11:23;;;;;;;0.30;0.30;;;8.50;99.90;;;;;;4406056;32;20057;-77
2024/01/31 03:13:50;;;;;;;0.47;0.47;;;8.50;99.90;;;;;;4403057;32;20074;-77
2024/01/31 03:16:16;;;;;;;0.43;0.43;;;8.50;99.90;;;;;;4406709;32;20544;-76
2024/01/31 03:18:41;;;;;;;0.40;0.40;;;8.50;99.90;;;;;;4410507;32;20078;-78
2024/01/31 03:21:07;;;;;;;0.32;0.32;;;8.50;99.90;;;;;;4411465;32;20073;-76
2024/01/31 03:23:32;;;;;;;0.98;0.77;;;8.40;99.90;;;;;;4409109;32;20124;-77
2024/01/31 03:25:58;;;;;;;0.20;0.20;;;8.40;99.90;;;;;;4410928;32;20443;-77
2024/01/31 03:28:23;;;;;;;0.30;0.30;;;8.30;99.90;;;;;;4410875;32;20135;-77
2024/01/31 03:30:49;;;;;;;0.30;0.30;;;8.40;99.90;;;;;;4408401;32;20089;-77
2024/01/31 03:33:14;;;;;;;0.80;0.80;;;8.30;99.90;;;;;;4407484;32;20073;-78
2024/01/31 03:35:40;;;;;;;0.30;0.30;;;8.30;99.90;;;;;;4404549;32;20149;-77
2024/01/31 03:38:05;;;;;;;0.30;0.30;;;8.30;99.90;;;;;;4408902;32;20522;-77
2024/01/31 03:40:31;;;;;;;0.30;0.30;;;8.30;99.90;;;;;;4406400;32;20081;-77
2024/01/31 03:42:56;;;;;;;0.40;0.40;;;8.10;99.90;;;;;;4404562;32;20124;-78
2024/01/31 03:45:22;;;;;;;0.50;0.50;;;8.00;99.90;;;;;;4405288;32;20090;-78
2024/01/31 03:47:47;;;;;;;0.30;0.30;;;8.00;99.90;;;;;;4409629;32;20121;-77
2024/01/31 03:50:13;;;;;;;0.37;0.37;;;7.90;99.90;;;;;;4403993;32;20082;-77
2024/01/31 03:52:38;;;;;;;0.30;0.30;;;7.90;99.90;;;;;;4408853;32;20122;-75
2024/01/31 03:55:04;;;;;;;0.30;0.30;;;7.80;99.90;;;;;;4408357;32;20082;-76
2024/01/31 03:57:30;;;;;;;0.30;0.30;;;7.80;99.90;;;;;;4404973;32;20085;-75
2024/01/31 03:59:56;;;;;;;0.45;0.45;;;7.80;99.90;;;;;;4404271;32;20065;-74
2024/01/31 04:02:22;;;;;;;0.30;0.30;;;7.70;99.90;;;;;;4406617;32;20061;-76
2024/01/31 04:04:47;;;;;;;0.30;0.30;;;7.70;99.90;;;;;;4403901;32;20416;-74
2024/01/31 04:07:13;;;;;;;1.17;0.40;;;7.70;99.90;;;;;;4405741;32;20086;-75
2024/01/31 04:09:38;;;;;;;0.30;0.30;;;7.60;99.90;;;;;;4404279;32;20524;-74
2024/01/31 04:12:04;;;;;;;0.30;0.30;;;7.60;99.90;;;;;;4409461;32;20964;-78
2024/01/31 04:14:30;;;;;;;0.40;0.40;;;7.60;99.90;;;;;;4408711;32;20074;-78
2024/01/31 04:16:55;;;;;;;0.20;0.20;;;7.60;99.90;;;;;;4405479;32;20204;-78
2024/01/31 04:19:20;;;;;;;0.30;0.30;;;7.60;99.90;;;;;;4408739;32;20889;-78
2024/01/31 04:21:46;;;;;;;0.30;0.30;;;7.60;99.90;;;;;;4409339;32;20069;-77
2024/01/31 04:24:12;;;;;;;0.30;0.30;;;7.70;99.90;;;;;;4407055;32;20085;-77
2024/01/31 04:26:44;;;;;;;0.25;0.25;;;7.70;99.90;;;;;;4406095;32;21313;-78
2024/01/31 04:29:10;;;;;;;0.30;0.30;;;7.70;99.90;;;;;;4402127;32;20073;-75
2024/01/31 04:31:35;;;;;;;0.40;0.40;;;7.70;99.90;;;;;;4402798;32;20093;-78
2024/01/31 04:34:04;;;;;;;0.20;0.20;;;7.60;99.90;;;;;;4405600;32;20082;-75
2024/01/31 04:36:30;;;;;;;0.40;0.40;;;7.50;99.90;;;;;;4405472;32;20133;-78
2024/01/31 04:38:58;;;;;;;0.25;0.25;;;7.50;99.90;;;;;;4407535;32;20556;-77
2024/01/31 04:41:23;;;;;;;0.30;0.30;;;7.50;99.90;;;;;;4404602;32;20080;-77
2024/01/31 04:43:49;;;;;;;0.20;0.20;;;7.50;99.90;;;;;;4403113;32;20082;-77
2024/01/31 04:46:14;;;;;;;0.30;0.30;;;7.50;99.90;;;;;;4402689;32;20074;-78
2024/01/31 04:48:40;;;;;;;0.28;0.28;;;7.50;99.90;;;;;;4405514;32;20475;-77
2024/01/31 04:51:06;;;;;;;0.30;0.30;;;7.50;99.90;;;;;;4409090;32;20065;-77
2024/01/31 04:53:31;;;;;;;0.70;0.70;;;7.50;99.90;;;;;;4403583;32;20082;-76
2024/01/31 04:55:57;;;;;;;0.30;0.30;;;7.50;99.90;;;;;;4410073;32;20471;-78
2024/01/31 04:58:22;;;;;;;0.30;0.30;;;7.40;99.90;;;;;;4404704;32;20070;-77
2024/01/31 05:00:48;;;;;;;0.30;0.30;;;7.40;99.90;;;;;;4405429;32;20077;-76
2024/01/31 05:03:13;;;;;;;0.20;0.20;;;7.50;99.90;;;;;;4405145;32;20541;-74
2024/01/31 05:05:39;;;;;;;0.30;0.30;;;7.40;99.90;;;;;;4411085;32;20082;-75
2024/01/31 05:08:05;;;;;;;0.30;0.30;;;7.40;99.90;;;;;;4406709;32;20142;-75
2024/01/31 05:10:34;;;;;;;0.30;0.30;;;7.30;99.90;;;;;;4404538;32;20505;-74
2024/01/31 05:13:00;;;;;;;0.25;0.25;;;7.40;99.90;;;;;;4399974;32;20083;-75
2024/01/31 05:15:25;;;;;;;0.30;0.30;;;7.30;99.90;;;;;;4405207;32;20065;-74
2024/01/31 05:17:51;;;;;;;0.30;0.30;;;7.40;99.90;;;;;;4403273;32;20471;-73
2024/01/31 05:20:16;;;;;;;0.30;0.30;;;7.40;99.90;;;;;;4404868;32;20124;-74
2024/01/31 05:22:42;;;;;;;0.20;0.20;;;7.40;99.90;;;;;;4393874;32;20070;-74
2024/01/31 05:25:08;;;;;;;0.30;0.30;;;7.30;99.90;;;;;;4402999;32;20085;-74
2024/01/31 05:27:35;;;;;;;0.20;0.20;;;7.20;99.90;;;;;;4402983;32;20269;-74
2024/01/31 05:30:03;;;;;;;0.30;0.30;;;7.30;99.90;;;;;;4400978;32;20592;-74
2024/01/31 05:32:30;;;;;;;0.30;0.30;;;7.20;99.90;;;;;;4403247;32;20069;-74
2024/01/31 05:34:55;;;;;;;0.30;0.30;;;7.10;99.90;;;;;;4400806;32;20160;-74
2024/01/31 05:37:21;;;;;;;0.30;0.30;;;7.10;99.90;;;;;;4405057;32;20195;-75
2024/01/31 05:39:46;;;;;;;0.20;0.20;;;7.00;99.90;;;;;;4401502;32;20065;-74
2024/01/31 05:42:12;;;;;;;0.30;0.30;;;7.00;99.90;;;;;;4405361;32;20421;-74
2024/01/31 05:44:37;;;;;;;0.30;0.30;;;7.00;99.90;;;;;;4402110;32;20090;-74
2024/01/31 05:47:03;;;;;;;0.30;0.30;;;6.90;99.90;;;;;;4402935;32;20210;-75
2024/01/31 05:49:28;;;;;;;0.30;0.30;;;6.90;99.90;;;;;;4403667;32;20529;-75
2024/01/31 05:51:54;;;;;;;0.30;0.30;;;6.90;99.90;;;;;;4400030;32;20121;-75
2024/01/31 05:54:20;;;;;;;0.30;0.30;;;6.90;99.90;;;;;;4404539;32;20064;-74
2024/01/31 05:56:46;;;;;;;0.30;0.30;;;6.90;99.90;;;;;;4401366;32;20099;-75
2024/01/31 05:59:11;;;;;;;0.40;0.40;;;6.90;99.90;;;;;;4400820;32;20610;-74
2024/01/31 06:01:37;;;;;;;0.30;0.30;;;6.90;99.90;;;;;;4403478;32;20207;-75
2024/01/31 06:04:03;;;;;;;0.40;0.40;;;6.90;99.90;;;;;;4400835;32;20086;-75
2024/01/31 06:06:29;;;;;;;0.37;0.37;;;6.90;99.90;;;;;;4389568;32;20450;-73
2024/01/31 06:08:55;;;;;;;0.40;0.40;;;6.90;99.90;;;;;;4399776;32;20082;-74
2024/01/31 06:11:21;;;;;;;0.20;0.20;;;6.80;99.90;;;;;;4401151;32;20154;-75
2024/01/31 06:13:47;;;;;;;0.30;0.30;;;6.80;99.90;;;;;;4392189;32;20077;-76
2024/01/31 06:16:14;;;;;;;0.25;0.25;;;6.70;99.90;;;;;;4399284;32;20085;-75
2024/01/31 06:18:40;;;;;;;0.40;0.40;;;6.70;99.90;;;;;;4398948;32;20081;-76
2024/01/31 06:21:06;;;;;;;0.30;0.30;;;6.70;99.90;;;;;;4391409;32;20163;-76
2024/01/31 06:23:31;;;;;;;0.30;0.30;;;6.70;99.90;;;;;;4401721;32;20085;-76
2024/01/31 06:26:01;;;;;;;0.20;0.20;;;6.70;99.90;;;;;;4391641;32;20108;-76
2024/01/31 06:28:26;;;;;;;0.30;0.30;;;6.80;99.90;;;;;;4389102;32;20066;-75
2024/01/31 06:30:59;;;;;;;0.30;0.30;;;6.70;99.90;;;;;;4399777;32;20080;-75
2024/01/31 06:33:31;;;;;;;0.40;0.40;;;6.70;99.90;;;;;;4394496;32;20494;-74
2024/01/31 06:35:58;;;;;;;0.68;0.68;;;6.70;99.90;;;;;;4400405;32;20412;-74
2024/01/31 06:38:23;;;;;;;0.30;0.30;;;6.70;99.90;;;;;;4399535;32;20078;-75
2024/01/31 06:40:49;;;;;;;0.28;0.28;;;6.60;99.90;;;;;;4397812;32;20081;-74
2024/01/31 06:43:15;;;;;;;0.32;0.32;;;6.60;99.90;;;;;;4400047;32;20440;-75
2024/01/31 06:45:40;;;;;;;0.30;0.30;;;6.60;99.90;;;;;;4389143;32;20162;-74
2024/01/31 06:48:08;;;;;;;0.30;0.30;;;6.70;99.90;;;;;;4392489;32;20081;-75
2024/01/31 06:50:33;;;;;;;0.30;0.30;;;6.70;99.90;;;;;;4389081;32;20481;-74
2024/01/31 06:52:59;;;;;;;0.30;0.30;;;6.70;99.90;;;;;;4391633;32;20089;-74
2024/01/31 06:55:25;;;;;;;1.27;0.80;;;6.70;99.90;;;;;;4386694;32;20101;-75
2024/01/31 06:57:53;;;;;;;0.30;0.30;;;6.70;99.90;;;;;;4383188;32;20528;-75
2024/01/31 07:00:18;;;;;;;0.40;0.40;;;6.70;99.90;;;;;;4378593;32;22171;-74
2024/01/31 07:02:44;;;;;;;0.28;0.28;;;6.60;99.90;;;;;;4371909;32;20090;-75
2024/01/31 07:05:11;;;;;;;0.30;0.30;;;6.70;99.90;;;;;;4378826;32;20109;-75
2024/01/31 07:07:36;;;;;;;0.30;0.30;;;6.60;99.90;;;;;;4366192;32;20065;-76
2024/01/31 07:10:02;;;;;;;0.20;0.20;;;6.60;99.90;;;;;;4372422;32;20093;-76
2024/01/31 07:12:29;;;;;;;0.30;0.30;;;6.60;99.90;;;;;;4379030;32;20082;-75
2024/01/31 07:14:54;;;;;;;0.28;0.28;;;6.50;99.90;;;;;;4390408;32;20678;-76
2024/01/31 07:17:20;;;;;;;0.25;0.25;;;6.50;99.90;;;;;;4383815;32;20158;-75
2024/01/31 07:19:46;;;;;;;0.30;0.30;;;6.50;99.90;;;;;;4387092;32;20114;-76
2024/01/31 07:22:11;;;;;;;0.30;0.30;;;6.50;99.90;;;;;;4380168;32;20086;-77
2024/01/31 07:24:37;;;;;;;0.30;0.30;;;6.50;99.90;;;;;;4386129;32;20573;-74
2024/01/31 07:27:03;;;;;;;0.30;0.30;;;6.40;99.90;;;;;;4379197;32;20175;-75
2024/01/31 07:29:29;;;;;;;0.40;0.40;;;6.40;99.90;;;;;;4383196;32;20093;-75
2024/01/31 07:31:55;;;;;;;0.40;0.40;;;6.40;99.90;;;;;;4378683;32;20719;-75
2024/01/31 07:34:20;;;;;;;0.20;0.20;;;6.40;99.90;;;;;;4379127;32;20088;-75
2024/01/31 07:36:46;;;;;;;0.30;0.30;;;6.40;99.90;;;;;;4381617;32;20119;-75
2024/01/31 07:39:12;;;;;;;0.50;0.50;;;6.40;99.90;;;;;;4381328;32;20183;-75
2024/01/31 07:41:38;;;;;;;0.40;0.40;;;6.40;99.90;;;;;;4377167;32;20473;-75
2024/01/31 07:44:06;;;;;;;0.30;0.30;;;6.40;99.90;;;;;;4380196;32;20090;-75
2024/01/31 07:46:32;;;;;;;0.30;0.30;;;6.40;99.90;;;;;;4374221;32;20574;-74
2024/01/31 07:48:57;;;;;;;0.30;0.30;;;6.40;99.90;;;;;;4346866;32;20241;-73
2024/01/31 07:51:23;;;;;;;0.37;0.37;;;6.30;99.90;;;;;;4371458;32;20467;-75
2024/01/31 07:53:49;;;;;;;0.40;0.40;;;6.40;99.90;;;;;;4374377;32;20505;-77
2024/01/31 07:56:14;;;;;;;0.30;0.30;;;6.40;99.90;;;;;;4378937;32;20660;-75
2024/01/31 07:58:40;;;;;;;0.30;0.30;;;6.40;99.90;;;;;;4389450;32;20382;-75
2024/01/31 08:01:05;;;;;;;0.30;0.30;;;6.40;99.90;;;;;;4381435;32;20169;-75
2024/01/31 08:03:31;;;;;;;0.30;0.30;;;6.50;99.90;;;;;;4389206;32;20568;-76
2024/01/31 08:05:59;;;;;;;0.40;0.40;;;6.50;99.90;;;;;;4376931;32;20081;-76
2024/01/31 08:08:25;;;;;;;0.43;0.40;;;6.60;99.90;;;;;;4376441;32;20098;-77
2024/01/31 08:10:50;;;;;;;0.30;0.30;;;6.70;99.90;;;;;;4374144;32;20098;-76
2024/01/31 08:13:16;;;;;;;0.40;0.40;;;6.70;99.90;;;;;;4377038;32;20803;-73
2024/01/31 08:15:41;;;;;;;0.30;0.30;;;6.70;99.90;;;;;;4377244;32;20447;-74
2024/01/31 08:18:07;;;;;;;0.30;0.30;;;6.70;99.90;;;;;;4385362;32;20070;-76
2024/01/31 08:20:32;;;;;;;0.30;0.30;;;6.60;99.90;;;;;;4380577;32;21113;-76
2024/01/31 08:22:58;;;;;;;0.40;0.40;;;6.60;99.90;;;;;;4384466;32;20102;-72
2024/01/31 08:25:23;;;;;;;0.30;0.30;;;6.60;99.90;;;;;;4375866;32;20133;-73
2024/01/31 08:27:49;;;;;;;0.30;0.30;;;6.70;99.90;;;;;;4386531;32;20530;-74
2024/01/31 08:30:17;;;;;;;0.20;0.20;;;6.60;99.90;;;;;;4386445;32;20090;-74
2024/01/31 08:32:44;;;;;;;0.37;0.37;;;6.60;99.90;;;;;;4382344;32;20665;-77
2024/01/31 08:35:10;;;;;;;0.30;0.30;;;6.70;99.90;;;;;;4386401;32;20828;-77
2024/01/31 08:37:42;;;;;;;0.30;0.30;;;6.80;99.90;;;;;;4387371;32;20093;-78
2024/01/31 08:40:10;;;;;;;0.30;0.30;;;6.80;99.90;;;;;;4393108;32;20070;-77
2024/01/31 08:42:38;;;;;;;0.30;0.30;;;6.80;99.90;;;;;;4385214;32;20140;-77
2024/01/31 08:45:06;;;;;;;0.30;0.30;;;6.60;99.90;;;;;;4394000;32;21494;-78
2024/01/31 08:47:32;;;;;;;0.35;0.35;;;6.60;99.90;;;;;;4385746;32;20133;-78
2024/01/31 08:49:57;;;;;;;0.40;0.40;;;6.40;99.90;;;;;;4379587;32;20999;-77
2024/01/31 08:52:23;;;;;;;0.30;0.30;;;6.30;99.90;;;;;;4355771;32;20098;-76
2024/01/31 08:54:48;;;;;;;0.30;0.30;;;6.30;99.90;;;;;;4364829;32;20569;-78
2024/01/31 08:57:14;;;;;;;0.30;0.30;;;6.20;99.90;;;;;;4378993;32;20133;-78
2024/01/31 08:59:39;;;;;;;0.30;0.30;;;6.20;99.90;;;;;;4383866;32;20595;-77
2024/01/31 09:02:05;;;;;;;0.30;0.30;;;6.10;99.90;;;;;;4374746;32;20098;-77
2024/01/31 09:04:31;;;;;;;0.30;0.30;;;6.20;99.90;;;;;;4383367;32;20227;-77
2024/01/31 09:06:56;;;;;;;0.30;0.30;;;6.20;99.90;;;;;;4378452;32;20570;-77
2024/01/31 09:09:22;;;;;;;0.32;0.32;;;6.20;99.90;;;;;;4381429;32;20107;-78
2024/01/31 09:11:47;;;;;;;0.40;0.40;;;6.30;99.90;;;;;;4388648;32;20085;-78
2024/01/31 09:14:13;;;;;;;0.40;0.40;;;6.30;99.90;;;;;;4383690;32;21076;-77
2024/01/31 09:16:39;;;;;;;0.40;0.40;;;6.30;99.90;;;;;;4383852;32;20102;-77
2024/01/31 09:19:05;;;;;;;0.30;0.30;;;6.40;99.90;;;;;;4388076;32;20594;-78
2024/01/31 09:21:35;;;;;;;0.30;0.30;;;6.40;99.90;;;;;;4384926;32;21036;-77
2024/01/31 09:24:01;;;;;;;0.30;0.30;;;6.40;99.90;;;;;;4380560;32;20216;-77
2024/01/31 09:26:26;;;;;;;0.40;0.40;;;6.40;99.90;;;;;;4379572;32;20585;-77
2024/01/31 09:28:52;;;;;;;0.30;0.30;;;6.40;99.90;;;;;;4382222;32;20065;-77
2024/01/31 09:31:21;;;;;;;0.30;0.30;;;6.50;99.90;;;;;;4380965;32;20586;-77
2024/01/31 09:33:47;;;;;;;0.30;0.30;;;6.50;99.90;;;;;;4384389;32;20081;-77
2024/01/31 09:36:13;;;;;;;0.30;0.30;;;6.40;99.90;;;;;;4383846;32;20229;-77
2024/01/31 09:38:38;;;;;;;0.40;0.40;;;6.50;99.90;;;;;;4380107;32;20093;-78
2024/01/31 09:41:04;;;;;;;0.68;0.68;;;6.60;99.90;;;;;;4378753;32;20111;-78
2024/01/31 09:43:30;;;;;;;0.25;0.25;;;6.60;99.90;;;;;;4376472;32;20081;-78
2024/01/31 09:45:57;;;;;;;0.30;0.30;;;6.50;99.90;;;;;;4383332;32;20144;-77
2024/01/31 09:48:23;;;;;;;0.30;0.30;;;6.40;99.90;;;;;;4380210;32;20078;-77
2024/01/31 09:50:51;;;;;;;0.30;0.30;;;6.30;99.90;;;;;;4380223;32;21314;-76
2024/01/31 09:53:20;;;;;;;0.35;0.35;;;6.30;99.90;;;;;;4378971;32;20675;-77
2024/01/31 09:55:46;;;;;;;0.37;0.37;;;6.30;99.90;;;;;;4379664;32;20093;-78
2024/01/31 09:58:12;;;;;;;0.30;0.30;;;6.30;99.90;;;;;;4374754;32;20062;-77
2024/01/31 10:00:38;;;;;;;0.30;0.30;;;6.30;99.90;;;;;;4371419;32;20526;-77
2024/01/31 10:03:05;;;;;;;0.30;0.30;;;6.20;99.90;;;;;;4371765;32;20192;-76
2024/01/31 10:05:31;;;;;;;0.30;0.30;;;6.20;99.90;;;;;;4383014;32;20334;-76
2024/01/31 10:08:01;;;;;;;0.37;0.37;;;6.20;99.90;;;;;;4381525;32;20196;-76
2024/01/31 10:10:27;;;;;;;0.50;0.50;;;6.20;99.90;;;;;;4374984;32;20128;-77
2024/01/31 10:12:53;;;;;;;0.30;0.30;;;6.30;99.90;;;;;;4361740;32;20130;-76
2024/01/31 10:15:19;;;;;;;0.60;0.60;;;6.40;99.90;;;;;;4379945;32;20081;-77
2024/01/31 10:17:44;;;;;;;0.60;0.60;;;6.40;99.90;;;;;;4380569;32;20073;-77
2024/01/31 10:20:12;;;;;;;0.37;0.37;;;6.40;99.90;;;;;;4380674;32;20505;-77
2024/01/31 10:22:38;;;;;;;0.30;0.30;;;6.40;99.90;;;;;;4373557;32;20408;-76
2024/01/31 10:25:05;;;;;;;0.30;0.30;;;6.50;99.90;;;;;;4374379;32;20915;-78
2024/01/31 10:27:36;;;;;;;0.40;0.40;;;6.50;99.90;;;;;;4367185;32;20550;-77
2024/01/31 10:30:07;;;;;;;7.65;0.60;;;6.50;99.90;;;;;;4374380;32;20852;-79
2024/01/31 10:32:34;;;;;;;0.30;0.30;;;6.50;99.90;;;;;;4371206;32;20161;-77
2024/01/31 10:35:02;;;;;;;0.43;0.43;;;6.50;99.90;;;;;;4371405;32;20104;-76
2024/01/31 10:37:29;;;;;;;0.30;0.30;;;6.40;99.90;;;;;;4371941;32;20211;-75
2024/01/31 10:39:55;;;;;;;0.30;0.30;;;6.40;99.90;;;;;;4372188;32;20086;-75
2024/01/31 10:42:21;;;;;;;0.30;0.30;;;6.40;99.90;;;;;;4373567;32;20097;-76
2024/01/31 10:44:54;;;;;;;0.30;0.30;;;6.30;99.90;;;;;;4373343;32;20569;-77
2024/01/31 10:47:19;;;;;;;0.30;0.30;;;6.20;99.90;;;;;;4380014;32;20504;-78
2024/01/31 10:49:45;;;;;;;0.30;0.30;;;6.10;99.90;;;;;;4382509;32;20102;-75
2024/01/31 10:52:19;;;;;;;0.20;0.20;;;6.10;99.90;;;;;;4379806;32;20495;-75
2024/01/31 10:54:52;;;;;;;0.40;0.40;;;6.10;99.90;;;;;;4379167;32;20779;-76
2024/01/31 10:57:21;;;;;;;0.40;0.40;;;6.10;99.90;;;;;;4378341;32;20294;-76
2024/01/31 10:59:49;;;;;;;0.30;0.30;;;6.20;99.90;;;;;;4373718;32;20598;-77
2024/01/31 11:02:15;;;;;;;0.30;0.30;;;6.20;99.90;;;;;;4374223;32;20078;-75
2024/01/31 11:04:43;;;;;;;0.30;0.30;;;6.30;99.90;;;;;;4377142;32;20126;-75
2024/01/31 11:07:20;;;;;;;1.85;1.42;;;6.30;99.90;;;;;;4375286;32;20727;-75
2024/01/31 11:09:46;;;;;;;0.30;0.30;;;6.30;99.90;;;;;;4371557;32;20102;-75
2024/01/31 11:12:14;;;;;;;0.30;0.30;;;6.30;99.90;;;;;;4375989;32;20192;-78
2024/01/31 11:14:41;;;;;;;0.30;0.30;;;6.40;99.90;;;;;;4372712;32;20591;-75
2024/01/31 11:17:12;;;;;;;0.30;0.30;;;6.40;99.90;;;;;;4367234;32;20120;-75
2024/01/31 11:19:51;;;;;;;0.32;0.32;;;6.50;99.90;;;;;;4378331;32;20580;-79
2024/01/31 11:22:19;;;;;;;0.30;0.30;;;6.50;99.90;;;;;;4389266;32;20094;-77
2024/01/31 11:24:47;;;;;;;0.20;0.20;;;6.30;99.90;;;;;;4390308;32;20082;-77
2024/01/31 11:27:15;;;;;;;0.30;0.30;;;6.30;99.90;;;;;;4380520;32;20101;-78
2024/01/31 11:29:42;;;;;;;0.47;0.40;;;6.20;99.90;;;;;;4387682;32;20069;-77
2024/01/31 11:32:09;;;;;;;0.30;0.30;;;6.30;99.90;;;;;;4390170;32;20117;-78
2024/01/31 11:34:36;;;;;;;0.35;0.35;;;6.20;99.90;;;;;;4385999;32;20137;-78
2024/01/31 11:37:01;;;;;;;0.30;0.30;;;6.20;99.90;;;;;;4393318;32;20089;-77
2024/01/31 11:39:32;;;;;;;0.35;0.35;;;6.10;99.90;;;;;;4390746;32;20082;-77
2024/01/31 11:41:57;;;;;;;0.30;0.30;;;6.20;99.90;;;;;;4391193;32;20090;-77
2024/01/31 11:44:25;;;;;;;0.43;0.43;;;6.20;99.90;;;;;;4390883;32;20202;-78
2024/01/31 11:46:51;;;;;;;0.30;0.30;;;6.10;99.90;;;;;;4393820;32;21388;-77
2024/01/31 11:49:17;;;;;;;0.40;0.40;;;6.10;99.90;;;;;;4388251;32;20101;-78
2024/01/31 11:51:43;;;;;;;0.30;0.30;;;6.20;99.90;;;;;;4381186;32;160767;-78
2024/01/31 11:54:09;;;;;;;0.30;0.30;;;6.20;99.90;;;;;;4379000;32;20114;-77
2024/01/31 11:56:36;;;;;;;1.35;1.25;;;6.30;99.90;;;;;;4369214;32;20999;-78
2024/01/31 11:59:03;;;;;;;0.75;0.75;;;6.20;99.90;;;;;;4370974;32;20296;-78
2024/01/31 12:01:31;;;;;;;0.30;0.30;;;6.20;99.90;;;;;;4382114;32;20367;-79
2024/01/31 12:03:57;;;;;;;0.40;0.40;;;6.20;99.90;;;;;;4385975;32;21320;-78
2024/01/31 12:06:22;;;;;;;0.30;0.30;;;6.20;99.90;;;;;;4380331;32;20212;-77
2024/01/31 12:08:49;;;;;;;0.40;0.40;;;6.30;99.90;;;;;;4381225;32;20061;-77
2024/01/31 12:11:15;;;;;;;0.30;0.30;;;6.30;99.90;;;;;;4381104;32;20191;-78
2024/01/31 12:13:41;;;;;;;16.50;0.95;;;6.40;99.90;;;;;;4373340;32;21014;-75
2024/01/31 12:16:08;;;;;;;0.52;0.52;;;6.30;99.90;;;;;;4377776;32;20169;-75
2024/01/31 12:18:34;;;;;;;2.67;0.75;;;6.40;99.90;;;;;;4378211;32;20763;-75
2024/01/31 12:21:02;;;;;;;0.30;0.30;;;6.40;99.90;;;;;;4380266;32;20413;-75
2024/01/31 12:23:27;;;;;;;0.30;0.30;;;6.40;99.90;;;;;;4384430;32;20101;-73
2024/01/31 12:25:53;;;;;;;0.35;0.35;;;6.50;99.90;;;;;;4375777;32;20220;-76
2024/01/31 12:28:18;;;;;;;0.30;0.30;;;6.60;99.90;;;;;;4387674;32;20505;-73
2024/01/31 12:30:44;;;;;;;0.30;0.30;;;6.70;99.90;;;;;;4394537;32;20529;-75
2024/01/31 12:33:09;;;;;;;0.28;0.28;;;6.60;99.90;;;;;;4390740;32;20124;-74
2024/01/31 12:35:35;;;;;;;0.40;0.40;;;6.60;99.90;;;;;;4384904;32;20085;-75
2024/01/31 12:38:00;;;;;;;0.35;0.35;;;6.60;99.90;;;;;;4388853;32;20085;-76
2024/01/31 12:40:27;;;;;;;0.30;0.30;;;6.60;99.90;;;;;;4390189;32;20588;-76
2024/01/31 12:42:54;;;;;;;0.30;0.30;;;6.50;99.90;;;;;;4391564;32;20133;-78
2024/01/31 12:45:20;;;;;;;0.62;0.60;;;6.60;99.90;;;;;;4389029;32;20090;-76
2024/01/31 12:47:48;;;;;;;2.08;0.75;;;6.60;99.90;;;;;;4390547;32;20541;-76
2024/01/31 12:50:13;;;;;;;1.87;0.65;;;6.60;99.90;;;;;;4390429;32;20370;-76
2024/01/31 12:52:39;;;;;;;0.30;0.30;;;6.60;99.90;;;;;;4389917;32;20933;-77
2024/01/31 12:55:05;;;;;;;0.47;0.47;;;6.60;99.90;;;;;;4390754;32;20074;-76